Time;durP1;ratioP1;P1;durP2;ratioP2;P2;SDS_P1;SDS_P2;PMS_P1;PMS_P2;Temp;Humidity;BMP_temperature;BMP_pressure;BME280_temperature;BME280_humidity;BME280_pressure;Samples;Min_cycle;Max_cycle;Signal;HPM_P1;HPM_P2
2023/05/01 00:00:59;;;;;;;4.13;3.72;;;;;;;11.08;100.00;101897.97;5062737;28;20124;-56
2023/05/01 00:03:25;;;;;;;5.30;3.65;;;;;;;11.06;100.00;101894.50;5064252;28;20025;-56
2023/05/01 00:05:51;;;;;;;7.30;3.80;;;;;;;11.04;100.00;101890.13;5065471;28;20486;-60
2023/05/01 00:08:16;;;;;;;5.20;4.00;;;;;;;11.06;100.00;101898.88;5061861;28;20504;-58
2023/05/01 00:10:41;;;;;;;5.38;4.18;;;;;;;11.03;100.00;101886.63;5065803;28;20052;-59
2023/05/01 00:13:08;;;;;;;6.25;3.88;;;;;;;11.08;100.00;101892.69;5061142;28;20045;-58
2023/05/01 00:15:34;;;;;;;5.50;3.88;;;;;;;11.06;100.00;101886.59;5065442;28;20036;-54
2023/05/01 00:17:59;;;;;;;5.25;3.85;;;;;;;11.05;100.00;101876.91;5065290;28;20029;-55
2023/05/01 00:20:28;;;;;;;4.40;3.35;;;;;;;11.06;100.00;101883.94;5061657;28;20031;-56
2023/05/01 00:22:54;;;;;;;5.45;3.75;;;;;;;11.09;100.00;101880.38;5065895;28;20386;-58
2023/05/01 00:25:19;;;;;;;10.05;4.32;;;;;;;11.11;100.00;101874.16;5062664;28;20037;-61
2023/05/01 00:27:45;;;;;;;5.85;3.80;;;;;;;11.09;100.00;101873.34;5063802;28;20500;-55
2023/05/01 00:30:10;;;;;;;6.45;3.83;;;;;;;11.07;100.00;101864.56;5065597;28;20080;-57
2023/05/01 00:32:37;;;;;;;4.70;3.45;;;;;;;11.08;100.00;101858.38;5051014;28;20368;-58
2023/05/01 00:35:03;;;;;;;6.85;4.32;;;;;;;11.15;100.00;101861.78;5031975;28;20024;-56
2023/05/01 00:37:28;;;;;;;7.15;4.25;;;;;;;11.15;100.00;101863.56;5046970;28;20032;-58
2023/05/01 00:39:54;;;;;;;5.95;3.55;;;;;;;11.13;100.00;101863.56;5069992;28;20021;-55
2023/05/01 00:42:19;;;;;;;4.63;3.78;;;;;;;11.12;100.00;101852.19;5066513;28;20025;-58
2023/05/01 00:44:45;;;;;;;5.63;3.50;;;;;;;11.15;100.00;101856.50;5066649;28;20016;-59
2023/05/01 00:47:10;;;;;;;4.63;3.80;;;;;;;11.23;100.00;101846.66;5069103;28;20032;-60
2023/05/01 00:49:36;;;;;;;4.65;3.63;;;;;;;11.21;100.00;101850.25;5062102;28;20028;-55
2023/05/01 00:52:01;;;;;;;7.15;3.63;;;;;;;11.18;100.00;101839.75;5069560;28;20059;-59
2023/05/01 00:54:27;;;;;;;6.15;3.60;;;;;;;11.25;100.00;101842.25;5066318;28;20028;-59
2023/05/01 00:56:53;;;;;;;6.35;3.85;;;;;;;11.28;100.00;101841.28;5065785;28;20427;-53
2023/05/01 00:59:19;;;;;;;4.72;3.28;;;;;;;11.29;100.00;101840.38;5068508;28;20025;-58
2023/05/01 01:01:45;;;;;;;3.60;3.30;;;;;;;11.24;100.00;101834.34;5065825;28;20488;-55
2023/05/01 01:04:11;;;;;;;4.68;3.55;;;;;;;11.22;100.00;101836.13;5068415;28;20070;-61
2023/05/01 01:06:57;;;;;;;6.50;3.33;;;;;;;11.26;100.00;101827.28;5067030;28;20036;-58
2023/05/01 01:09:33;;;;;;;5.10;3.60;;;;;;;11.23;100.00;101817.66;5081652;28;20043;-57
2023/05/01 01:12:15;;;;;;;5.72;3.80;;;;;;;11.21;100.00;101813.31;5067046;28;20024;-57
2023/05/01 01:14:48;;;;;;;5.70;3.35;;;;;;;11.18;100.00;101813.38;5029545;28;20030;-57
2023/05/01 01:17:22;;;;;;;6.18;3.53;;;;;;;11.10;100.00;101805.59;5028672;28;20109;-57
2023/05/01 01:20:30;;;;;;;6.55;3.03;;;;;;;11.17;100.00;101801.09;5065046;28;20032;-56
2023/05/01 01:23:38;;;;;;;6.57;3.60;;;;;;;11.14;100.00;101802.03;5068567;28;20119;-55
2023/05/01 01:26:16;;;;;;;4.72;3.50;;;;;;;11.14;100.00;101799.41;5067347;28;20291;-53
2023/05/01 01:29:14;;;;;;;5.27;3.00;;;;;;;11.20;100.00;101795.75;5067861;28;20033;-56
2023/05/01 01:32:02;;;;;;;6.80;3.30;;;;;;;11.17;100.00;101785.25;5051344;28;20029;-54
2023/05/01 01:34:47;;;;;;;4.53;3.20;;;;;;;11.18;100.00;101784.34;5047253;28;20035;-56
2023/05/01 01:37:21;;;;;;;6.53;3.40;;;;;;;11.17;100.00;101772.06;5060515;28;20070;-60
2023/05/01 01:39:56;;;;;;;5.07;3.33;;;;;;;11.14;100.00;101769.50;5067425;28;20036;-53
2023/05/01 01:42:25;;;;;;;4.30;3.42;;;;;;;11.07;100.00;101766.09;5061681;28;20028;-55
2023/05/01 01:44:54;;;;;;;7.95;3.88;;;;;;;11.10;100.00;101763.41;5047542;28;20064;-59
2023/05/01 01:47:21;;;;;;;4.05;2.85;;;;;;;11.08;100.00;101758.16;5045755;28;20032;-57
2023/05/01 01:49:48;;;;;;;5.80;3.10;;;;;;;11.07;100.00;101759.06;5029499;28;20025;-55
2023/05/01 01:52:15;;;;;;;4.55;3.20;;;;;;;11.04;100.00;101751.22;5028200;28;20430;-58
2023/05/01 01:54:46;;;;;;;5.10;3.25;;;;;;;11.17;100.00;101751.81;5049229;28;20029;-55
2023/05/01 01:57:13;;;;;;;6.40;3.33;;;;;;;11.08;100.00;101755.53;5066452;28;20039;-61
2023/05/01 01:59:39;;;;;;;4.70;2.90;;;;;;;11.12;100.00;101762.50;5066142;28;20065;-57
2023/05/01 02:02:06;;;;;;;5.18;3.40;;;;;;;11.16;100.00;101751.84;5063871;28;20056;-56
2023/05/01 02:04:32;;;;;;;5.75;3.05;;;;;;;11.21;100.00;101755.28;5067009;28;20606;-58
2023/05/01 02:06:59;;;;;;;6.30;3.50;;;;;;;11.21;100.00;101742.97;5061505;28;20045;-53
2023/05/01 02:09:25;;;;;;;5.95;3.13;;;;;;;11.22;100.00;101746.44;5067120;28;20386;-58
2023/05/01 02:11:52;;;;;;;5.07;2.85;;;;;;;11.23;100.00;101738.50;5063991;28;20712;-57
2023/05/01 02:14:19;;;;;;;9.77;3.30;;;;;;;11.19;100.00;101736.84;5067203;28;20029;-60
2023/05/01 02:16:45;;;;;;;4.78;3.42;;;;;;;11.18;100.00;101732.47;5066413;28;20033;-54
2023/05/01 02:19:12;;;;;;;5.40;3.35;;;;;;;11.16;100.00;101723.72;5045744;28;20451;-60
2023/05/01 02:21:38;;;;;;;5.15;3.53;;;;;;;11.14;100.00;101727.28;5066474;28;20059;-55
2023/05/01 02:24:04;;;;;;;5.18;3.15;;;;;;;11.11;100.00;101721.19;5062760;28;20176;-52
2023/05/01 02:26:30;;;;;;;5.90;3.20;;;;;;;11.08;100.00;101717.75;5067075;28;20036;-55
2023/05/01 02:28:56;;;;;;;3.63;3.28;;;;;;;11.02;100.00;101718.75;5065763;28;20032;-52
2023/05/01 02:31:21;;;;;;;5.72;3.45;;;;;;;11.04;100.00;101716.94;5063659;28;20032;-54
2023/05/01 02:33:47;;;;;;;7.72;3.25;;;;;;;11.00;100.00;101715.28;5067369;28;20025;-57
2023/05/01 02:36:12;;;;;;;5.25;3.28;;;;;;;11.06;100.00;101712.50;5064179;28;20517;-54
2023/05/01 02:38:38;;;;;;;6.32;3.20;;;;;;;11.01;100.00;101714.38;5067769;28;20064;-60
2023/05/01 02:41:04;;;;;;;5.18;3.08;;;;;;;11.00;100.00;101707.38;5066202;28;20032;-56
2023/05/01 02:43:32;;;;;;;8.15;3.38;;;;;;;11.04;100.00;101706.38;5062458;28;20532;-61
2023/05/01 02:45:58;;;;;;;8.70;3.95;;;;;;;11.06;100.00;101696.69;5066118;28;20437;-56
2023/05/01 02:48:26;;;;;;;7.35;3.40;;;;;;;11.05;100.00;101708.13;5061511;28;20178;-57
2023/05/01 02:50:52;;;;;;;3.50;2.78;;;;;;;11.06;100.00;101701.97;5066306;28;20497;-61
2023/05/01 02:53:19;;;;;;;4.78;3.80;;;;;;;11.09;100.00;101701.91;5064720;28;20421;-56
2023/05/01 02:55:44;;;;;;;8.15;3.15;;;;;;;11.07;100.00;101695.78;5063628;28;20016;-57
2023/05/01 02:58:16;;;;;;;6.25;3.10;;;;;;;11.03;100.00;101690.59;5065925;28;20466;-57
2023/05/01 03:00:43;;;;;;;7.53;3.30;;;;;;;11.01;100.00;101690.63;5063464;28;20031;-58
2023/05/01 03:03:08;;;;;;;3.72;3.13;;;;;;;10.98;100.00;101686.31;5058997;28;20458;-57
2023/05/01 03:05:34;;;;;;;4.50;3.17;;;;;;;10.97;100.00;101689.84;5066932;28;20265;-62
2023/05/01 03:07:59;;;;;;;8.30;3.63;;;;;;;11.00;100.00;101683.63;5059305;28;20049;-60
2023/05/01 03:10:24;;;;;;;7.30;3.83;;;;;;;10.99;100.00;101680.13;5067661;28;20033;-58
2023/05/01 03:12:49;;;;;;;5.75;3.25;;;;;;;11.02;100.00;101678.31;5063182;28;20528;-53
2023/05/01 03:15:17;;;;;;;4.47;2.83;;;;;;;11.11;100.00;101681.59;5066286;28;20052;-59
2023/05/01 03:17:42;;;;;;;6.78;3.40;;;;;;;11.06;100.00;101672.94;5066791;28;20123;-62
2023/05/01 03:20:09;;;;;;;4.82;3.50;;;;;;;11.05;100.00;101665.91;5062217;28;20122;-62
2023/05/01 03:22:35;;;;;;;5.97;3.10;;;;;;;11.09;100.00;101672.00;5067129;28;20551;-55
2023/05/01 03:25:00;;;;;;;7.28;3.22;;;;;;;11.08;100.00;101660.56;5063498;28;20040;-60
2023/05/01 03:27:26;;;;;;;5.72;3.15;;;;;;;11.05;100.00;101659.78;5065740;28;20036;-55
2023/05/01 03:29:52;;;;;;;7.50;3.63;;;;;;;11.05;100.00;101654.53;5066588;28;20027;-59
2023/05/01 03:32:17;;;;;;;7.40;3.20;;;;;;;11.05;100.00;101659.78;5053316;28;20044;-57
2023/05/01 03:34:43;;;;;;;9.15;3.80;;;;;;;11.07;100.00;101650.06;5045673;28;20052;-58
2023/05/01 03:37:09;;;;;;;6.35;3.50;;;;;;;11.00;100.00;101654.63;5045428;28;20033;-58
2023/05/01 03:39:34;;;;;;;4.70;3.60;;;;;;;11.05;100.00;101643.97;5062056;28;20070;-55
2023/05/01 03:41:59;;;;;;;7.47;4.03;;;;;;;10.98;100.00;101656.41;5066348;28;20063;-55
2023/05/01 03:44:25;;;;;;;9.60;4.15;;;;;;;10.95;100.00;101651.22;5063061;28;20522;-55
2023/05/01 03:46:50;;;;;;;7.05;4.00;;;;;;;11.00;100.00;101638.81;5067418;28;20398;-58
2023/05/01 03:49:15;;;;;;;4.45;3.60;;;;;;;11.06;100.00;101645.69;5059741;28;20021;-55
2023/05/01 03:51:41;;;;;;;6.45;4.00;;;;;;;11.05;100.00;101634.28;5055902;28;20361;-59
2023/05/01 03:54:06;;;;;;;5.95;3.97;;;;;;;10.94;100.00;101642.44;5046330;28;20025;-61
2023/05/01 03:56:34;;;;;;;5.32;3.78;;;;;;;10.97;100.00;101633.59;5051990;28;20064;-60
2023/05/01 03:59:00;;;;;;;8.10;3.90;;;;;;;10.88;100.00;101634.66;5060008;28;20021;-54
2023/05/01 04:01:25;;;;;;;6.35;4.10;;;;;;;10.96;100.00;101642.41;5067259;28;20031;-59
2023/05/01 04:03:51;;;;;;;8.15;4.15;;;;;;;10.94;100.00;101637.19;5064205;28;20105;-53
2023/05/01 04:06:17;;;;;;;7.03;4.32;;;;;;;11.05;100.00;101633.44;5066426;28;20534;-63
2023/05/01 04:08:43;;;;;;;6.05;4.53;;;;;;;11.01;100.00;101632.63;5066528;28;20379;-54
2023/05/01 04:11:08;;;;;;;7.40;4.25;;;;;;;10.92;100.00;101638.09;5065960;28;20032;-59
2023/05/01 04:13:34;;;;;;;7.03;4.47;;;;;;;10.94;100.00;101631.91;5070254;28;20044;-56
2023/05/01 04:15:59;;;;;;;8.38;4.60;;;;;;;10.96;100.00;101629.22;5066646;28;20056;-54
2023/05/01 04:18:24;;;;;;;7.45;4.07;;;;;;;11.00;100.00;101625.63;5067309;28;20107;-53
2023/05/01 04:20:51;;;;;;;7.82;4.22;;;;;;;10.97;100.00;101628.31;5030009;28;20040;-64
2023/05/01 04:23:16;;;;;;;9.00;4.20;;;;;;;11.06;100.00;101619.31;5048910;28;20025;-63
2023/05/01 04:25:42;;;;;;;8.60;4.22;;;;;;;10.94;100.00;101625.75;5050215;28;20104;-53
2023/05/01 04:28:09;;;;;;;5.85;4.50;;;;;;;10.97;100.00;101625.69;5043070;28;20078;-60
2023/05/01 04:30:35;;;;;;;6.90;3.83;;;;;;;10.92;100.00;101631.06;5064685;28;20042;-55
2023/05/01 04:33:00;;;;;;;8.05;4.40;;;;;;;10.92;100.00;101623.16;5059754;28;20021;-58
2023/05/01 04:35:26;;;;;;;4.65;4.03;;;;;;;10.90;100.00;101621.47;5050252;28;20029;-52
2023/05/01 04:37:51;;;;;;;11.05;4.30;;;;;;;10.92;100.00;101614.34;5049638;28;20386;-55
2023/05/01 04:40:17;;;;;;;9.43;4.38;;;;;;;10.86;100.00;101621.53;5049174;28;20029;-54
2023/05/01 04:42:42;;;;;;;5.50;3.85;;;;;;;10.87;100.00;101625.88;5049296;28;20029;-55
2023/05/01 04:45:08;;;;;;;8.48;4.38;;;;;;;10.83;100.00;101624.22;5048799;28;20024;-57
2023/05/01 04:47:34;;;;;;;6.82;3.85;;;;;;;10.94;100.00;101618.72;5049855;28;20387;-55
2023/05/01 04:49:59;;;;;;;6.07;3.95;;;;;;;10.86;100.00;101623.28;5050301;28;20077;-52
2023/05/01 04:52:24;;;;;;;8.15;4.68;;;;;;;10.89;100.00;101615.31;5059423;28;20039;-54
2023/05/01 04:54:50;;;;;;;8.98;3.63;;;;;;;10.92;100.00;101617.00;5068116;28;20388;-57
2023/05/01 04:57:15;;;;;;;9.98;4.20;;;;;;;10.97;100.00;101615.13;5066005;28;20028;-55
2023/05/01 04:59:42;;;;;;;6.78;4.05;;;;;;;11.10;100.00;101615.69;5062658;28;20048;-56
2023/05/01 05:02:07;;;;;;;4.90;3.80;;;;;;;11.06;100.00;101619.31;5066335;28;20052;-55
2023/05/01 05:04:33;;;;;;;9.90;4.10;;;;;;;11.01;100.00;101622.06;5068920;28;20109;-59
2023/05/01 05:06:58;;;;;;;5.15;3.42;;;;;;;11.05;100.00;101621.09;5064894;28;20990;-52
2023/05/01 05:09:23;;;;;;;7.72;4.32;;;;;;;11.19;100.00;101619.88;5068508;28;20470;-59
2023/05/01 05:11:49;;;;;;;11.90;4.28;;;;;;;11.15;100.00;101621.75;5052749;28;20489;-62
2023/05/01 05:14:14;;;;;;;7.47;4.05;;;;;;;11.06;100.00;101625.47;5050554;28;20037;-54
2023/05/01 05:16:39;;;;;;;9.55;4.43;;;;;;;11.09;100.00;101612.22;5041635;28;20025;-56
2023/05/01 05:19:05;;;;;;;16.35;4.63;;;;;;;11.03;100.00;101620.28;5048305;28;20048;-55
2023/05/01 05:21:30;;;;;;;6.60;3.65;;;;;;;11.27;100.00;101617.94;5048957;28;20027;-57
2023/05/01 05:23:56;;;;;;;10.93;4.00;;;;;;;11.27;100.00;101615.31;5049290;28;20032;-55
2023/05/01 05:26:21;;;;;;;6.10;3.92;;;;;;;11.38;100.00;101615.06;5063290;28;20036;-55
2023/05/01 05:28:46;;;;;;;6.40;4.00;;;;;;;11.28;100.00;101617.03;5069107;28;20628;-54
2023/05/01 05:31:12;;;;;;;8.35;4.35;;;;;;;11.37;100.00;101610.66;5065147;28;20504;-57
2023/05/01 05:33:37;;;;;;;8.30;4.05;;;;;;;11.45;100.00;101613.13;5060718;28;20028;-55
2023/05/01 05:36:03;;;;;;;9.98;3.83;;;;;;;11.43;100.00;101617.56;5034636;28;20482;-59
2023/05/01 05:38:28;;;;;;;6.13;4.25;;;;;;;11.42;100.00;101615.84;5043783;28;20057;-54
2023/05/01 05:40:53;;;;;;;8.98;4.20;;;;;;;11.44;100.00;101614.03;5060274;28;20054;-54
2023/05/01 05:43:19;;;;;;;5.53;3.85;;;;;;;11.62;100.00;101613.56;5047762;28;20493;-51
2023/05/01 05:45:45;;;;;;;7.50;4.22;;;;;;;11.70;100.00;101620.41;5049513;28;20038;-51
2023/05/01 05:48:10;;;;;;;13.00;5.20;;;;;;;11.64;100.00;101613.50;5062951;28;20025;-58
2023/05/01 05:50:35;;;;;;;10.52;4.30;;;;;;;11.66;100.00;101613.47;5037655;28;20048;-56
2023/05/01 05:53:01;;;;;;;5.90;3.97;;;;;;;11.71;100.00;101608.94;5027740;28;20021;-56
2023/05/01 05:55:26;;;;;;;4.45;4.05;;;;;;;11.77;100.00;101608.75;5045438;28;20493;-56
2023/05/01 05:57:52;;;;;;;6.63;4.10;;;;;;;11.73;100.00;101612.41;5034720;28;20030;-56
2023/05/01 06:00:17;;;;;;;5.97;4.03;;;;;;;11.84;100.00;101606.84;5056659;28;20029;-54
2023/05/01 06:02:43;;;;;;;8.65;4.07;;;;;;;11.93;100.00;101611.88;5051022;28;20394;-57
2023/05/01 06:05:09;;;;;;;19.25;4.65;;;;;;;12.03;100.00;101606.31;5045069;28;20683;-57
2023/05/01 06:07:36;;;;;;;18.33;4.40;;;;;;;12.01;100.00;101609.00;5061691;28;20198;-56
2023/05/01 06:10:04;;;;;;;16.38;4.70;;;;;;;11.90;100.00;101606.69;5067218;28;20027;-59
2023/05/01 06:12:30;;;;;;;11.05;4.15;;;;;;;11.98;100.00;101599.41;5063571;28;20117;-57
2023/05/01 06:14:56;;;;;;;14.18;4.25;;;;;;;12.01;100.00;101603.72;5068771;28;20057;-51
2023/05/01 06:17:22;;;;;;;16.38;4.68;;;;;;;11.97;100.00;101604.72;5066451;28;20493;-59
2023/05/01 06:19:48;;;;;;;16.27;4.50;;;;;;;12.00;100.00;101602.88;5063091;28;20024;-59
2023/05/01 06:22:13;;;;;;;29.90;5.45;;;;;;;12.13;100.00;101598.13;5065289;28;20024;-55
2023/05/01 06:24:38;;;;;;;16.60;4.20;;;;;;;12.15;100.00;101605.16;5062657;28;20490;-54
2023/05/01 06:27:04;;;;;;;8.90;4.13;;;;;;;12.31;100.00;101595.88;5067121;28;20020;-53
2023/05/01 06:29:30;;;;;;;10.98;4.28;;;;;;;12.37;100.00;101603.63;5040333;28;20105;-54
2023/05/01 06:31:55;;;;;;;13.15;4.43;;;;;;;12.51;100.00;101594.44;5061831;28;20292;-55
2023/05/01 06:34:20;;;;;;;7.10;3.88;;;;;;;12.50;100.00;101600.63;5041337;28;20368;-58
2023/05/01 06:36:46;;;;;;;11.73;4.25;;;;;;;12.40;100.00;101599.19;5041976;28;20450;-56
2023/05/01 06:39:11;;;;;;;8.63;4.00;;;;;;;12.60;100.00;101602.09;5061007;28;20029;-59
2023/05/01 06:41:37;;;;;;;8.27;4.38;;;;;;;12.59;100.00;101599.50;5064679;28;20024;-54
2023/05/01 06:44:03;;;;;;;8.63;4.25;;;;;;;12.74;100.00;101603.44;5061500;28;20032;-58
2023/05/01 06:46:28;;;;;;;9.38;4.15;;;;;;;12.87;100.00;101593.34;5044360;28;20017;-58
2023/05/01 06:48:54;;;;;;;10.70;3.95;;;;;;;12.91;100.00;101599.41;5043503;28;20028;-55
2023/05/01 06:51:19;;;;;;;7.20;4.00;;;;;;;12.97;100.00;101601.84;5057246;28;20074;-57
2023/05/01 06:53:44;;;;;;;6.80;4.20;;;;;;;13.02;100.00;101602.56;5050551;28;20036;-55
2023/05/01 06:56:09;;;;;;;7.65;3.75;;;;;;;12.95;100.00;101598.41;5051774;28;20103;-57
2023/05/01 06:58:35;;;;;;;7.70;3.78;;;;;;;12.95;100.00;101601.03;5049219;28;20025;-57
2023/05/01 07:01:00;;;;;;;5.88;3.97;;;;;;;13.05;100.00;101602.47;5044053;28;20013;-59
2023/05/01 07:03:26;;;;;;;5.30;4.05;;;;;;;13.22;100.00;101595.78;5046274;28;20025;-53
2023/05/01 07:05:53;;;;;;;7.68;4.13;;;;;;;13.37;100.00;101603.19;5046650;28;20021;-57
2023/05/01 07:08:18;;;;;;;9.48;4.18;;;;;;;13.40;100.00;101602.25;5042244;28;20517;-55
2023/05/01 07:10:43;;;;;;;8.45;4.03;;;;;;;13.54;100.00;101599.13;5059041;28;20029;-57
2023/05/01 07:13:09;;;;;;;8.82;4.50;;;;;;;13.49;100.00;101601.94;5033202;28;20490;-56
2023/05/01 07:15:34;;;;;;;10.40;4.40;;;;;;;13.51;100.00;101607.19;5054599;28;20033;-52
2023/05/01 07:18:01;;;;;;;4.40;4.00;;;;;;;13.58;100.00;101608.69;5045759;28;20415;-53
2023/05/01 07:20:27;;;;;;;13.55;5.00;;;;;;;13.60;100.00;101606.00;5041708;28;20043;-55
2023/05/01 07:22:52;;;;;;;9.45;4.30;;;;;;;13.64;100.00;101602.34;5060050;28;20538;-57
2023/05/01 07:25:19;;;;;;;11.52;4.68;;;;;;;13.64;100.00;101611.13;5032945;28;20033;-53
2023/05/01 07:27:44;;;;;;;12.93;4.70;;;;;;;13.74;100.00;101608.19;5044868;28;20111;-54
2023/05/01 07:30:10;;;;;;;8.55;4.25;;;;;;;13.92;100.00;101608.44;5056897;28;20111;-53
2023/05/01 07:32:35;;;;;;;12.55;4.90;;;;;;;13.94;100.00;101611.91;5031201;28;20256;-57
2023/05/01 07:35:00;;;;;;;11.15;4.28;;;;;;;13.93;100.00;101607.53;5061385;28;20036;-58
2023/05/01 07:37:26;;;;;;;8.30;4.50;;;;;;;13.99;100.00;101615.25;5039033;28;20056;-56
2023/05/01 07:39:51;;;;;;;8.88;4.38;;;;;;;14.05;100.00;101616.84;5046524;28;20024;-55
2023/05/01 07:42:17;;;;;;;6.50;4.68;;;;;;;14.01;100.00;101613.41;5052442;28;20014;-55
2023/05/01 07:44:42;;;;;;;13.15;5.35;;;;;;;14.22;100.00;101618.84;5033735;28;20048;-57
2023/05/01 07:47:07;;;;;;;7.40;4.63;;;;;;;14.32;100.00;101617.59;5061124;28;20422;-58
2023/05/01 07:49:37;;;;;;;10.95;4.70;;;;;;;14.34;100.00;101621.06;5036787;28;20497;-56
2023/05/01 07:52:03;;;;;;;8.68;4.82;;;;;;;14.37;100.00;101610.34;5049543;28;20017;-56
2023/05/01 07:54:28;;;;;;;10.68;4.97;;;;;;;14.31;100.00;101599.97;5052202;28;20095;-57
2023/05/01 07:56:53;;;;;;;10.77;4.65;;;;;;;14.40;100.00;101594.31;5034934;28;20115;-57
2023/05/01 07:59:19;;;;;;;15.98;4.93;;;;;;;14.61;100.00;101597.06;5062519;28;20111;-55
2023/05/01 08:01:44;;;;;;;12.65;5.20;;;;;;;14.75;100.00;101598.31;5051687;28;20032;-56
2023/05/01 08:04:09;;;;;;;7.20;4.30;;;;;;;14.99;100.00;101600.94;5048441;28;20100;-54
2023/05/01 08:06:35;;;;;;;10.73;5.25;;;;;;;15.13;100.00;101603.88;5033020;28;20602;-57
2023/05/01 08:09:00;;;;;;;13.95;5.10;;;;;;;15.23;99.71;101595.56;5051412;28;20074;-60
2023/05/01 08:11:26;;;;;;;11.23;4.90;;;;;;;15.43;99.51;101600.00;5048866;28;20025;-55
2023/05/01 08:13:51;;;;;;;10.23;4.70;;;;;;;15.63;98.22;101601.81;5036721;28;20024;-55
2023/05/01 08:16:18;;;;;;;9.75;4.82;;;;;;;15.55;100.00;101606.59;5061338;28;20074;-52
2023/05/01 08:18:45;;;;;;;8.45;5.22;;;;;;;15.27;97.26;101602.47;5050444;28;20024;-58
2023/05/01 08:21:10;;;;;;;8.65;4.57;;;;;;;15.41;97.13;101608.03;5051271;28;20156;-58
2023/05/01 08:23:36;;;;;;;14.25;5.50;;;;;;;15.36;96.17;101610.03;5034119;28;20109;-56
2023/05/01 08:26:01;;;;;;;14.18;5.30;;;;;;;15.41;97.10;101610.69;5061837;28;20028;-60
2023/05/01 08:28:26;;;;;;;16.70;5.28;;;;;;;15.51;96.24;101600.53;5035734;28;20025;-55
2023/05/01 08:30:52;;;;;;;7.93;5.10;;;;;;;15.53;95.27;101604.00;5048422;28;20316;-52
2023/05/01 08:33:17;;;;;;;14.07;5.32;;;;;;;15.39;96.13;101609.88;5050127;28;20021;-59
2023/05/01 08:35:43;;;;;;;10.68;5.75;;;;;;;15.56;94.46;101604.81;5034901;28;20451;-52
2023/05/01 08:38:10;;;;;;;10.00;4.85;;;;;;;15.85;94.60;101611.50;5062091;28;20020;-56
2023/05/01 08:40:39;;;;;;;7.25;4.88;;;;;;;16.13;93.12;101612.09;5034273;28;20030;-55
2023/05/01 08:43:04;;;;;;;11.80;5.00;;;;;;;16.16;92.86;101606.63;5050500;28;20017;-55
2023/05/01 08:45:36;;;;;;;12.25;4.70;;;;;;;16.17;93.85;101608.38;5049132;28;20112;-54
2023/05/01 08:48:04;;;;;;;9.45;5.00;;;;;;;16.14;94.14;101612.03;5035629;28;20032;-58
2023/05/01 08:50:30;;;;;;;13.57;5.70;;;;;;;15.98;95.67;101613.66;5061394;28;20386;-55
2023/05/01 08:52:57;;;;;;;15.30;5.25;;;;;;;16.06;95.33;101624.81;5042724;28;20698;-54
2023/05/01 08:55:24;;;;;;;11.88;5.60;;;;;;;15.71;97.73;101629.84;5055301;28;20024;-58
2023/05/01 08:57:50;;;;;;;12.65;5.88;;;;;;;15.81;96.82;101625.88;5059242;28;20029;-57
2023/05/01 09:00:19;;;;;;;11.45;5.57;;;;;;;15.87;97.70;101633.53;5033728;28;20025;-54
2023/05/01 09:02:47;;;;;;;12.05;5.40;;;;;;;15.91;98.45;101637.81;5060229;28;20067;-57
2023/05/01 09:05:14;;;;;;;9.48;5.72;;;;;;;15.85;99.58;101642.53;5055140;28;20025;-54
2023/05/01 09:07:40;;;;;;;10.70;5.10;;;;;;;16.07;99.49;101634.50;5049119;28;20445;-61
2023/05/01 09:10:06;;;;;;;12.95;5.40;;;;;;;16.26;100.00;101642.50;5043346;28;20074;-56
2023/05/01 09:12:34;;;;;;;14.75;5.43;;;;;;;16.20;98.50;101641.94;5036194;28;20045;-58
2023/05/01 09:15:01;;;;;;;9.45;4.93;;;;;;;16.54;98.41;101637.72;5062486;28;20029;-54
2023/05/01 09:17:27;;;;;;;15.98;5.22;;;;;;;16.58;95.57;101652.59;5067711;28;20024;-61
2023/05/01 09:19:53;;;;;;;10.25;6.13;;;;;;;16.44;96.49;101641.75;5065913;28;20035;-56
2023/05/01 09:22:19;;;;;;;9.85;5.43;;;;;;;16.42;97.46;101650.69;5066693;28;20024;-59
2023/05/01 09:24:44;;;;;;;13.88;5.25;;;;;;;16.48;97.03;101659.28;5065395;28;20028;-57
2023/05/01 09:27:13;;;;;;;13.35;5.95;;;;;;;16.55;93.97;101655.41;5067165;28;20036;-59
2023/05/01 09:29:44;;;;;;;7.30;4.97;;;;;;;16.53;93.97;101657.31;5061636;28;20021;-58
2023/05/01 09:32:19;;;;;;;13.13;5.97;;;;;;;16.51;93.25;101653.84;5048935;28;20060;-56
2023/05/01 09:34:44;;;;;;;10.55;5.70;;;;;;;16.55;92.56;101660.72;5047269;28;20036;-60
2023/05/01 09:37:30;;;;;;;11.98;6.00;;;;;;;16.70;92.39;101656.50;5061510;28;20040;-58
2023/05/01 09:40:07;;;;;;;7.10;5.22;;;;;;;16.78;92.14;101656.13;5066041;28;20056;-55
2023/05/01 09:42:34;;;;;;;15.50;5.43;;;;;;;16.78;91.64;101664.13;5064355;28;20050;-59
2023/05/01 09:45:02;;;;;;;11.00;5.53;;;;;;;16.69;91.83;101665.41;5065026;28;20029;-58
2023/05/01 09:47:32;;;;;;;9.90;5.43;;;;;;;16.57;93.84;101665.97;5056060;28;20110;-61
2023/05/01 09:49:58;;;;;;;11.43;6.32;;;;;;;16.37;94.97;101665.09;5038576;28;20439;-58
2023/05/01 09:52:26;;;;;;;13.77;5.70;;;;;;;16.01;95.52;101669.31;5050756;28;20104;-59
2023/05/01 09:55:16;;;;;;;8.10;5.65;;;;;;;15.83;96.72;101671.81;5054854;28;20017;-56
2023/05/01 09:57:42;;;;;;;11.85;6.32;;;;;;;15.74;98.65;101675.75;5051745;28;20092;-60
2023/05/01 10:00:13;;;;;;;18.88;5.97;;;;;;;15.54;99.46;101679.25;5052989;28;20039;-57
2023/05/01 10:02:40;;;;;;;10.45;6.18;;;;;;;15.32;100.00;101676.63;5040954;28;20490;-56
2023/05/01 10:05:06;;;;;;;13.40;6.43;;;;;;;15.20;100.00;101680.63;5062565;28;20032;-55
2023/05/01 10:07:32;;;;;;;13.90;6.45;;;;;;;15.03;100.00;101688.31;5044954;28;20112;-58
2023/05/01 10:09:57;;;;;;;14.35;6.25;;;;;;;14.98;100.00;101684.13;5057072;28;20478;-55
2023/05/01 10:12:27;;;;;;;10.85;6.30;;;;;;;14.80;100.00;101696.28;5051862;28;20045;-56
2023/05/01 10:14:56;;;;;;;16.10;6.38;;;;;;;14.70;100.00;101698.41;5030308;28;20028;-56
2023/05/01 10:17:21;;;;;;;;;;;;;;;14.56;100.00;101689.19;5055374;28;20059;-57
2023/05/01 10:19:48;;;;;;;12.15;5.90;;;;;;;14.34;100.00;101700.59;5051768;28;19976;-59
2023/05/01 10:22:13;;;;;;;12.05;6.07;;;;;;;14.21;100.00;101696.66;5056030;28;20063;-60
2023/05/01 10:24:39;;;;;;;12.15;6.25;;;;;;;14.16;100.00;101696.81;5037855;28;20468;-57
2023/05/01 10:27:09;;;;;;;9.82;6.03;;;;;;;13.97;100.00;101700.09;5034219;28;20033;-57
2023/05/01 10:29:35;;;;;;;13.07;6.80;;;;;;;13.87;100.00;101699.53;5060102;28;20021;-54
2023/05/01 10:32:03;;;;;;;10.07;6.47;;;;;;;13.67;100.00;101699.34;5033821;28;20025;-58
2023/05/01 10:34:30;;;;;;;16.73;6.70;;;;;;;13.62;100.00;101702.16;5058439;28;20523;-59
2023/05/01 10:37:03;;;;;;;13.80;7.10;;;;;;;13.48;100.00;101706.09;5044596;28;20029;-57
2023/05/01 10:39:37;;;;;;;16.80;7.45;;;;;;;13.45;100.00;101700.03;5042554;28;20120;-61
2023/05/01 10:42:12;;;;;;;13.85;7.30;;;;;;;13.44;100.00;101703.56;5057065;28;20071;-59
2023/05/01 10:44:38;;;;;;;13.57;7.80;;;;;;;13.29;100.00;101708.47;5037982;28;20033;-55
2023/05/01 10:47:33;;;;;;;12.88;7.47;;;;;;;13.30;100.00;101696.94;5055359;28;20082;-56
2023/05/01 10:50:07;;;;;;;12.90;7.43;;;;;;;13.34;100.00;101709.16;5045943;28;20041;-58
2023/05/01 10:53:08;;;;;;;11.05;7.28;;;;;;;13.34;100.00;101703.88;5045297;28;20487;-54
2023/05/01 10:55:35;;;;;;;14.60;8.00;;;;;;;13.34;100.00;101701.22;5040492;28;20025;-56
2023/05/01 10:58:00;;;;;;;23.27;7.70;;;;;;;13.17;100.00;101695.59;5042076;28;20164;-63
2023/05/01 11:00:25;;;;;;;14.20;7.72;;;;;;;13.11;100.00;101686.94;5063843;28;20103;-57
2023/05/01 11:02:51;;;;;;;13.27;7.25;;;;;;;13.25;100.00;101683.84;5040997;28;20029;-52
2023/05/01 11:05:16;;;;;;;13.57;6.65;;;;;;;13.07;100.00;101687.97;5056745;28;20437;-55
2023/05/01 11:07:41;;;;;;;11.23;6.50;;;;;;;13.26;100.00;101688.25;5062269;28;20072;-56
2023/05/01 11:10:26;;;;;;;13.25;7.95;;;;;;;13.40;100.00;101682.50;5040428;28;20591;-59
2023/05/01 11:12:51;;;;;;;9.95;6.55;;;;;;;13.49;100.00;101688.44;5056478;28;20036;-57
2023/05/01 11:15:26;;;;;;;12.20;7.20;;;;;;;13.64;100.00;101689.75;5033887;28;20423;-56
2023/05/01 11:17:51;;;;;;;14.75;6.90;;;;;;;13.93;100.00;101694.97;5065261;28;20029;-57